Time;durP1;ratioP1;P1;durP2;ratioP2;P2;SDS_P1;SDS_P2;PMS_P1;PMS_P2;Temp;Humidity;BMP_temperature;BMP_pressure;BME280_temperature;BME280_humidity;BME280_pressure;Samples;Min_cycle;Max_cycle;Signal;HPM_P1;HPM_P2
2021/12/31 00:02:17;;;;;;;1.80;1.17;;;;;;;11.21;100.00;100485.98;1692619;83;21549;-76
2021/12/31 00:04:45;;;;;;;1.32;1.22;;;;;;;11.24;100.00;100485.02;1694539;84;21070;-76
2021/12/31 00:07:12;;;;;;;2.22;1.07;;;;;;;11.24;100.00;100490.27;1728879;82;21150;-79
2021/12/31 00:09:39;;;;;;;2.47;1.32;;;;;;;11.24;100.00;100483.24;1696645;83;21118;-75
2021/12/31 00:12:08;;;;;;;1.77;1.25;;;;;;;11.25;100.00;100490.22;1692795;84;21061;-76
2021/12/31 00:14:36;;;;;;;3.02;1.40;;;;;;;11.25;100.00;100484.97;1696397;84;21114;-75
2021/12/31 00:17:05;;;;;;;3.30;1.32;;;;;;;11.25;100.00;100478.84;1696809;84;21019;-76
2021/12/31 00:19:39;;;;;;;1.27;1.00;;;;;;;11.26;100.00;100488.45;1696764;83;21958;-77
2021/12/31 00:22:19;;;;;;;2.45;1.40;;;;;;;11.25;100.00;100479.73;1696623;83;27651;-76
2021/12/31 00:24:32;;;;;;;2.33;1.53;;;;;;;11.26;100.00;100475.33;1692430;84;21093;-77
2021/12/31 00:26:59;;;;;;;3.12;1.65;;;;;;;11.24;100.00;100485.86;1728983;81;21035;-76
2021/12/31 00:29:26;;;;;;;2.95;1.02;;;;;;;11.23;100.00;100474.98;1729053;81;21103;-76
2021/12/31 00:31:53;;;;;;;3.45;1.45;;;;;;;11.22;100.00;100477.19;1728826;82;21199;-76
2021/12/31 00:34:22;;;;;;;2.95;1.30;;;;;;;11.23;100.00;100487.25;1729499;81;21476;-76
2021/12/31 00:36:49;;;;;;;2.40;1.40;;;;;;;11.24;100.00;100484.55;1696841;84;21678;-75
2021/12/31 00:39:16;;;;;;;1.62;1.30;;;;;;;11.26;100.00;100482.73;1693046;83;20980;-76
2021/12/31 00:41:45;;;;;;;1.57;1.10;;;;;;;11.26;100.00;100483.20;1728814;82;21556;-77
2021/12/31 00:44:12;;;;;;;3.25;1.35;;;;;;;11.24;100.00;100481.93;1728989;81;21074;-76
2021/12/31 00:46:39;;;;;;;2.12;1.50;;;;;;;11.25;100.00;100484.09;1731070;81;21003;-77
2021/12/31 00:49:07;;;;;;;2.62;1.27;;;;;;;11.25;100.00;100484.09;1728564;81;21523;-76
2021/12/31 00:51:34;;;;;;;1.60;1.30;;;;;;;11.23;100.00;100490.73;1730596;81;21043;-76
2021/12/31 00:54:01;;;;;;;2.42;1.27;;;;;;;11.25;100.00;100482.34;1696391;84;21111;-76
2021/12/31 00:56:28;;;;;;;2.50;1.40;;;;;;;11.25;100.00;100490.22;1729270;82;21860;-76
2021/12/31 00:58:55;;;;;;;3.70;1.40;;;;;;;11.26;100.00;100484.05;1728922;81;21066;-76
2021/12/31 01:01:23;;;;;;;3.00;1.35;;;;;;;11.26;100.00;100480.57;1727782;82;21062;-77
2021/12/31 01:03:50;;;;;;;2.65;1.70;;;;;;;11.26;100.00;100479.27;1727722;82;21083;-76
2021/12/31 01:06:18;;;;;;;2.83;1.62;;;;;;;11.26;100.00;100484.05;1729230;81;22419;-77
2021/12/31 01:08:45;;;;;;;2.37;1.50;;;;;;;11.26;100.00;100483.20;1696220;84;22155;-75
2021/12/31 01:11:12;;;;;;;2.10;1.50;;;;;;;11.24;100.00;100483.24;1728525;81;21047;-76
2021/12/31 01:13:53;;;;;;;6.70;1.80;;;;;;;11.25;100.00;100483.66;1731954;81;20989;-76
2021/12/31 01:16:18;;;;;;;1.87;1.50;;;;;;;11.24;100.00;100481.08;1727999;82;21047;-76
2021/12/31 01:21:16;;;;;;;2.40;1.42;;;;;;;11.25;100.00;100490.22;1728472;82;21592;-76
2021/12/31 01:23:43;;;;;;;2.40;1.32;;;;;;;11.25;100.00;100497.21;1730251;82;21038;-77
2021/12/31 01:26:11;;;;;;;2.15;1.35;;;;;;;11.25;100.00;100505.08;1727217;82;21070;-76
2021/12/31 01:28:38;;;;;;;3.05;1.45;;;;;;;11.23;100.00;100502.53;1719775;81;21045;-77
2021/12/31 01:31:05;;;;;;;2.30;1.30;;;;;;;11.23;100.00;100497.28;1710656;82;21009;-77
2021/12/31 01:33:33;;;;;;;2.00;1.07;;;;;;;11.22;100.00;100506.05;1731030;82;21111;-77
2021/12/31 01:36:00;;;;;;;3.02;1.47;;;;;;;11.23;100.00;100501.69;1720323;82;21062;-78
2021/12/31 01:38:28;;;;;;;1.95;1.40;;;;;;;11.23;100.00;100506.93;1709778;82;21444;-77
2021/12/31 01:40:55;;;;;;;2.95;1.57;;;;;;;11.22;100.00;100506.05;1737293;82;21529;-77
2021/12/31 01:43:22;;;;;;;2.20;1.10;;;;;;;11.21;100.00;100502.19;1733495;82;21008;-77
2021/12/31 01:45:56;;;;;;;1.82;1.02;;;;;;;11.20;100.00;100502.66;1727088;82;21166;-77
2021/12/31 01:48:26;;;;;;;1.92;1.22;;;;;;;11.19;100.00;100503.55;1690343;83;21016;-77
2021/12/31 01:50:53;;;;;;;4.87;1.27;;;;;;;11.19;100.00;100497.45;1695197;83;21450;-76
2021/12/31 01:53:22;;;;;;;2.77;1.20;;;;;;;11.18;100.00;100495.28;1666093;84;21055;-77
2021/12/31 01:55:52;;;;;;;3.70;1.40;;;;;;;11.18;100.00;100500.53;1675389;84;21094;-77
2021/12/31 01:58:24;;;;;;;2.10;1.00;;;;;;;11.20;100.00;100501.80;1660432;86;21384;-77
2021/12/31 02:00:51;;;;;;;1.82;1.10;;;;;;;11.19;100.00;100503.55;1658898;86;21021;-76
2021/12/31 02:03:20;;;;;;;2.98;1.20;;;;;;;11.21;100.00;100499.56;1689235;84;21287;-77
2021/12/31 02:05:47;;;;;;;2.00;1.35;;;;;;;11.21;100.00;100502.19;1701405;83;21440;-78
2021/12/31 02:08:16;;;;;;;4.35;1.10;;;;;;;11.20;100.00;100498.72;1672508;85;21082;-77
2021/12/31 02:10:43;;;;;;;3.10;1.40;;;;;;;11.20;100.00;100497.41;1695031;84;21158;-78
2021/12/31 02:13:11;;;;;;;3.72;1.30;;;;;;;11.19;100.00;100500.92;1692313;84;21472;-78
2021/12/31 02:15:38;;;;;;;2.20;1.40;;;;;;;11.19;100.00;100506.63;1666631;86;21033;-77
2021/12/31 02:18:08;;;;;;;2.87;1.30;;;;;;;11.19;100.00;100502.23;1666199;85;21536;-78
2021/12/31 02:20:41;;;;;;;2.35;1.10;;;;;;;11.20;100.00;100496.55;1729450;81;21040;-77
2021/12/31 02:23:08;;;;;;;3.55;1.35;;;;;;;11.21;100.00;100509.59;1701720;84;22136;-77
2021/12/31 02:25:37;;;;;;;3.08;1.57;;;;;;;11.21;100.00;100503.50;1670057;84;21032;-79
2021/12/31 02:28:04;;;;;;;3.08;1.40;;;;;;;11.20;100.00;100497.87;1711041;82;21477;-78
2021/12/31 02:30:32;;;;;;;1.98;1.05;;;;;;;11.22;100.00;100497.33;1731145;82;21420;-77
2021/12/31 02:32:59;;;;;;;1.50;1.02;;;;;;;11.22;100.00;100496.02;1696722;84;22112;-78
2021/12/31 02:35:26;;;;;;;1.42;1.07;;;;;;;11.20;100.00;100497.41;1693966;83;21145;-77
2021/12/31 02:37:53;;;;;;;4.33;0.98;;;;;;;11.21;100.00;100495.17;1695840;83;21051;-77
2021/12/31 02:40:22;;;;;;;3.37;1.32;;;;;;;11.21;100.00;100494.32;1728916;81;21126;-78
2021/12/31 02:42:49;;;;;;;2.72;1.40;;;;;;;11.20;100.00;100497.41;1728763;81;21048;-78
2021/12/31 02:45:16;;;;;;;3.55;1.50;;;;;;;11.20;100.00;100496.09;1728707;82;21130;-78
2021/12/31 02:47:45;;;;;;;1.95;1.60;;;;;;;11.20;100.00;100492.16;1728361;82;21098;-77
2021/12/31 02:50:16;;;;;;;2.30;1.17;;;;;;;11.20;100.00;100483.44;1728693;82;20916;-78
2021/12/31 02:52:45;;;;;;;1.47;1.10;;;;;;;11.20;100.00;100479.50;1730731;81;21078;-78
2021/12/31 02:55:13;;;;;;;2.83;1.00;;;;;;;11.19;100.00;100482.55;1728793;82;21062;-78
2021/12/31 02:57:41;;;;;;;2.33;1.30;;;;;;;11.19;100.00;100487.80;1728893;81;21532;-77
2021/12/31 03:00:10;;;;;;;2.27;1.20;;;;;;;11.21;100.00;100478.58;1728822;81;21108;-77
2021/12/31 03:02:40;;;;;;;4.12;1.15;;;;;;;11.20;100.00;100482.13;1729719;81;21500;-78
2021/12/31 03:05:10;;;;;;;1.25;1.05;;;;;;;11.19;100.00;100479.94;1697405;83;21583;-78
2021/12/31 03:07:40;;;;;;;1.42;1.05;;;;;;;11.20;100.00;100483.44;1697529;84;21939;-78
2021/12/31 03:10:10;;;;;;;4.60;1.40;;;;;;;11.20;100.00;100481.66;1696520;84;21582;-78
2021/12/31 03:12:41;;;;;;;1.70;1.22;;;;;;;11.20;100.00;100484.75;1693621;83;25566;-76
2021/12/31 03:15:11;;;;;;;2.12;1.20;;;;;;;11.21;100.00;100486.45;1700048;84;21028;-76
2021/12/31 03:17:40;;;;;;;1.85;0.90;;;;;;;11.22;100.00;100490.77;1700105;84;21520;-76
2021/12/31 03:20:15;;;;;;;2.25;1.27;;;;;;;11.22;100.00;100484.21;1701284;83;21619;-76
2021/12/31 03:22:42;;;;;;;1.47;1.12;;;;;;;11.21;100.00;100489.92;1696303;83;21052;-76
2021/12/31 03:25:11;;;;;;;1.52;0.85;;;;;;;11.22;100.00;100490.77;1695948;84;21816;-76
2021/12/31 03:27:38;;;;;;;2.13;1.20;;;;;;;11.22;100.00;100495.55;1696034;84;21510;-77
2021/12/31 03:30:06;;;;;;;2.72;1.27;;;;;;;11.23;100.00;100492.50;1695935;84;21112;-76
2021/12/31 03:32:33;;;;;;;1.40;1.10;;;;;;;11.24;100.00;100495.52;1695536;83;21075;-76
2021/12/31 03:35:00;;;;;;;2.02;1.10;;;;;;;11.23;100.00;100491.19;1696914;83;21537;-76
2021/12/31 03:37:28;;;;;;;1.50;1.10;;;;;;;11.23;100.00;100492.50;1696320;83;21916;-76
2021/12/31 03:39:54;;;;;;;1.67;1.15;;;;;;;11.25;100.00;100484.09;1696183;83;21063;-76
2021/12/31 03:42:21;;;;;;;1.75;1.07;;;;;;;11.22;100.00;100492.94;1696282;83;21075;-76
2021/12/31 03:44:49;;;;;;;1.65;1.00;;;;;;;11.24;100.00;100495.52;1696309;84;21079;-76
2021/12/31 03:47:16;;;;;;;1.47;1.20;;;;;;;11.25;100.00;100496.78;1730172;81;21492;-76
2021/12/31 03:49:43;;;;;;;2.95;1.10;;;;;;;11.26;100.00;100483.20;1729014;81;21782;-76
2021/12/31 03:52:10;;;;;;;2.62;1.15;;;;;;;11.24;100.00;100488.48;1729010;81;21070;-76
2021/12/31 03:54:37;;;;;;;1.60;1.07;;;;;;;11.26;100.00;100481.89;1697988;83;21086;-77
2021/12/31 03:57:04;;;;;;;1.82;1.17;;;;;;;11.27;100.00;100490.98;1693453;83;21441;-76
2021/12/31 03:59:31;;;;;;;5.33;1.22;;;;;;;11.30;100.00;100488.25;1730278;81;21064;-77
2021/12/31 04:01:58;;;;;;;4.90;1.30;;;;;;;11.29;100.00;100489.63;1696628;84;21108;-75
2021/12/31 04:04:25;;;;;;;5.00;1.27;;;;;;;11.29;100.00;100494.42;1693073;84;21028;-76
2021/12/31 04:06:53;;;;;;;1.95;0.98;;;;;;;11.28;100.00;100492.72;1694282;83;21035;-76
2021/12/31 04:09:20;;;;;;;1.95;1.22;;;;;;;11.29;100.00;100494.88;1728676;82;20951;-75
2021/12/31 04:11:47;;;;;;;3.08;1.17;;;;;;;11.29;100.00;100497.05;1729473;81;21038;-76
2021/12/31 04:14:14;;;;;;;1.98;1.07;;;;;;;11.31;100.00;100500.94;1728989;82;21142;-75
2021/12/31 04:16:41;;;;;;;1.25;0.90;;;;;;;11.29;100.00;100501.44;1696974;83;21094;-75
2021/12/31 04:19:08;;;;;;;3.30;1.05;;;;;;;11.28;100.00;100503.65;1693736;84;21083;-76
2021/12/31 04:21:35;;;;;;;1.52;1.35;;;;;;;11.29;100.00;100509.31;1703892;84;21124;-76
2021/12/31 04:24:13;;;;;;;2.12;0.88;;;;;;;11.29;100.00;100515.41;1695573;84;21045;-76
2021/12/31 04:26:34;;;;;;;2.42;0.95;;;;;;;11.30;100.00;100513.64;1694938;83;21954;-77
2021/12/31 04:29:01;;;;;;;1.70;0.80;;;;;;;11.29;100.00;100516.72;1705056;84;21063;-76
2021/12/31 04:31:28;;;;;;;4.42;1.00;;;;;;;11.31;100.00;100511.44;1704517;84;21593;-77
2021/12/31 04:33:56;;;;;;;1.25;0.80;;;;;;;11.31;100.00;100510.12;1703675;84;21115;-77
2021/12/31 04:36:23;;;;;;;2.60;0.88;;;;;;;11.31;100.00;100511.44;1704787;84;21123;-77
2021/12/31 04:38:50;;;;;;;1.30;0.68;;;;;;;11.31;100.00;100507.03;1704497;82;22106;-78
2021/12/31 04:41:17;;;;;;;1.92;1.00;;;;;;;11.31;100.00;100506.19;1672907;84;21665;-77
2021/12/31 04:43:44;;;;;;;1.05;0.85;;;;;;;11.30;100.00;100503.14;1695593;84;21543;-76
2021/12/31 04:46:11;;;;;;;2.40;1.00;;;;;;;11.31;100.00;100508.34;1704155;83;21089;-76
2021/12/31 04:48:38;;;;;;;2.87;1.10;;;;;;;11.29;100.00;100511.94;1703768;84;21093;-76
2021/12/31 04:51:05;;;;;;;2.25;1.07;;;;;;;11.30;100.00;100510.55;1704321;83;21130;-77
2021/12/31 04:53:33;;;;;;;4.12;1.55;;;;;;;11.29;100.00;100502.30;1718218;83;21062;-76
2021/12/31 04:56:00;;;;;;;1.57;0.80;;;;;;;11.30;100.00;100504.45;1707257;82;21019;-76
2021/12/31 04:58:28;;;;;;;1.80;0.90;;;;;;;11.29;100.00;100505.37;1704386;84;21051;-76
2021/12/31 05:00:55;;;;;;;1.02;0.80;;;;;;;11.29;100.00;100510.63;1672973;84;21063;-76
2021/12/31 05:03:22;;;;;;;2.62;0.90;;;;;;;11.29;100.00;100508.00;1695761;83;21150;-76
2021/12/31 05:05:49;;;;;;;2.08;0.80;;;;;;;11.27;100.00;100509.36;1704849;84;21019;-76
2021/12/31 05:08:15;;;;;;;5.25;1.05;;;;;;;11.26;100.00;100509.44;1705435;84;20931;-76
2021/12/31 05:10:42;;;;;;;1.05;0.90;;;;;;;11.23;100.00;100511.72;1704926;84;20983;-76
2021/12/31 05:13:14;;;;;;;2.52;0.88;;;;;;;11.24;100.00;100511.25;1705038;84;21078;-76
2021/12/31 05:15:44;;;;;;;3.95;0.93;;;;;;;11.23;100.00;100507.78;1705092;82;21087;-75
2021/12/31 05:18:07;;;;;;;1.70;0.90;;;;;;;11.25;100.00;100502.45;1674818;84;21049;-75
2021/12/31 05:20:34;;;;;;;2.33;0.88;;;;;;;11.26;100.00;100501.10;1691422;84;21056;-75
2021/12/31 05:23:01;;;;;;;3.00;0.90;;;;;;;11.28;100.00;100518.96;1683270;85;20995;-75
2021/12/31 05:25:28;;;;;;;2.45;0.93;;;;;;;11.29;100.00;100506.69;1684478;85;21079;-75
2021/12/31 05:27:55;;;;;;;1.62;0.80;;;;;;;11.27;100.00;100508.05;1674066;84;21148;-76
2021/12/31 05:30:25;;;;;;;1.67;0.78;;;;;;;11.29;100.00;100513.25;1661261;86;21150;-75
2021/12/31 05:32:53;;;;;;;1.02;0.85;;;;;;;11.27;100.00;100509.82;1680996;84;21016;-76
2021/12/31 05:35:20;;;;;;;1.98;0.80;;;;;;;11.28;100.00;100516.77;1668081;85;21091;-76
2021/12/31 05:37:47;;;;;;;2.17;0.90;;;;;;;11.26;100.00;100519.93;1697186;83;21114;-75
2021/12/31 05:40:14;;;;;;;1.92;1.25;;;;;;;11.26;100.00;100515.53;1707870;83;21150;-75
2021/12/31 05:42:41;;;;;;;2.10;0.70;;;;;;;11.24;100.00;100508.17;1683531;84;20971;-75
2021/12/31 05:45:09;;;;;;;2.08;0.90;;;;;;;11.24;100.00;100517.35;1694996;84;21008;-75
2021/12/31 05:47:38;;;;;;;2.83;0.80;;;;;;;11.25;100.00;100533.52;1695051;84;21067;-75
2021/12/31 05:50:18;;;;;;;1.70;0.90;;;;;;;11.28;100.00;100515.02;1658639;84;21070;-75
2021/12/31 05:52:36;;;;;;;1.95;0.80;;;;;;;11.31;100.00;100517.53;1666302;85;21382;-74
2021/12/31 05:55:05;;;;;;;2.30;0.70;;;;;;;11.31;100.00;100515.37;1669201;84;21005;-74
2021/12/31 05:57:32;;;;;;;2.25;0.72;;;;;;;11.32;100.00;100509.20;1672741;85;21024;-74
2021/12/31 05:59:59;;;;;;;1.50;0.88;;;;;;;11.33;100.00;100522.27;1677729;85;21009;-74
2021/12/31 06:02:26;;;;;;;2.08;0.78;;;;;;;11.35;100.00;100511.70;1664137;86;22214;-74
2021/12/31 06:04:52;;;;;;;1.00;0.60;;;;;;;11.36;100.00;100511.66;1666098;85;21148;-74
2021/12/31 06:07:20;;;;;;;1.00;0.72;;;;;;;11.36;100.00;100511.66;1676243;85;21508;-74
2021/12/31 06:09:47;;;;;;;1.35;0.65;;;;;;;11.37;100.00;100522.53;1664691;85;21619;-76
2021/12/31 06:12:14;;;;;;;1.57;0.78;;;;;;;11.39;100.00;100529.05;1664063;85;21044;-73
2021/12/31 06:14:41;;;;;;;1.22;0.70;;;;;;;11.40;100.00;100515.00;1673813;85;21110;-74
2021/12/31 06:17:09;;;;;;;0.93;0.62;;;;;;;11.42;100.00;100528.93;1672217;84;21959;-77
2021/12/31 06:19:37;;;;;;;1.75;0.57;;;;;;;11.42;100.00;100530.24;1676486;83;21115;-74
2021/12/31 06:22:06;;;;;;;1.57;0.85;;;;;;;11.45;100.00;100535.84;1684092;83;21079;-74
2021/12/31 06:24:33;;;;;;;0.85;0.60;;;;;;;11.47;100.00;100533.98;1713478;83;21045;-75
2021/12/31 06:27:00;;;;;;;1.72;0.62;;;;;;;11.49;100.00;100534.33;1711444;83;21048;-75
2021/12/31 06:29:27;;;;;;;1.00;0.60;;;;;;;11.51;100.00;100535.13;1683757;83;21217;-75
2021/12/31 06:31:53;;;;;;;1.20;0.50;;;;;;;11.51;100.00;100532.50;1682496;83;21039;-75
2021/12/31 06:34:20;;;;;;;2.20;0.53;;;;;;;11.52;100.00;100534.20;1687274;83;21008;-76
2021/12/31 06:36:47;;;;;;;0.70;0.50;;;;;;;11.54;100.00;100538.95;1695735;83;21568;-77
2021/12/31 06:39:14;;;;;;;0.85;0.55;;;;;;;11.53;100.00;100545.13;1691621;83;21024;-75
2021/12/31 06:41:41;;;;;;;1.10;0.80;;;;;;;11.55;100.00;100551.61;1667065;86;21203;-74
2021/12/31 06:44:08;;;;;;;1.10;0.50;;;;;;;11.56;100.00;100548.94;1682578;83;20951;-76
2021/12/31 06:46:35;;;;;;;1.55;0.72;;;;;;;11.56;100.00;100563.38;1731889;82;21054;-74
2021/12/31 06:49:02;;;;;;;2.42;0.70;;;;;;;11.57;100.00;100553.27;1737769;82;21006;-75
2021/12/31 06:51:29;;;;;;;0.68;0.57;;;;;;;11.56;100.00;100558.13;1720237;82;21608;-73
2021/12/31 06:53:56;;;;;;;2.45;0.50;;;;;;;11.56;100.00;100558.59;1719009;82;21126;-73
2021/12/31 06:56:23;;;;;;;1.25;0.60;;;;;;;11.56;100.00;100559.90;1736510;82;21034;-73
2021/12/31 06:58:50;;;;;;;1.07;0.60;;;;;;;11.57;100.00;100565.08;1738559;82;21048;-73
2021/12/31 07:01:17;;;;;;;0.75;0.42;;;;;;;11.59;100.00;100554.53;1737096;82;21039;-73
2021/12/31 07:03:43;;;;;;;3.50;0.80;;;;;;;11.59;100.00;100555.84;1734033;82;21478;-73
2021/12/31 07:06:10;;;;;;;0.50;0.45;;;;;;;11.61;100.00;100555.30;1738717;82;21101;-73
2021/12/31 07:08:38;;;;;;;1.40;0.60;;;;;;;11.61;100.00;100555.30;1739370;82;21087;-73
2021/12/31 07:11:05;;;;;;;1.50;0.62;;;;;;;11.62;100.00;100553.09;1714762;82;21067;-72
2021/12/31 07:13:32;;;;;;;1.10;0.60;;;;;;;11.61;100.00;100553.55;1738302;82;20975;-73
2021/12/31 07:15:59;;;;;;;1.85;0.60;;;;;;;11.60;100.00;100557.08;1736576;82;21033;-74
2021/12/31 07:18:26;;;;;;;0.90;0.57;;;;;;;11.61;100.00;100557.92;1736826;82;21120;-75
2021/12/31 07:20:53;;;;;;;1.02;0.45;;;;;;;11.61;100.00;100565.80;1737292;81;21036;-74
2021/12/31 07:23:22;;;;;;;0.80;0.40;;;;;;;11.61;100.00;100571.94;1734405;81;21491;-73
2021/12/31 07:25:49;;;;;;;2.47;0.40;;;;;;;11.66;100.00;100572.20;1737746;81;21639;-74
2021/12/31 07:28:16;;;;;;;3.08;0.60;;;;;;;11.70;100.00;100572.03;1735292;80;21394;-74
2021/12/31 07:30:48;;;;;;;0.50;0.40;;;;;;;11.74;100.00;100576.23;1745532;81;21148;-74
2021/12/31 07:33:26;;;;;;;0.47;0.40;;;;;;;11.78;100.00;100571.73;1735700;81;21071;-74
2021/12/31 07:35:57;;;;;;;1.17;0.42;;;;;;;11.80;100.00;100579.92;1739003;81;21070;-74
2021/12/31 07:38:39;;;;;;;0.72;0.50;;;;;;;11.83;100.00;100583.77;1736116;81;22202;-74
2021/12/31 07:41:05;;;;;;;1.55;0.37;;;;;;;11.86;100.00;100585.45;1732588;81;20999;-74
2021/12/31 07:43:33;;;;;;;1.35;0.45;;;;;;;11.88;100.00;100588.86;1735654;80;21316;-74
2021/12/31 07:46:00;;;;;;;0.75;0.30;;;;;;;11.90;100.00;100587.03;1735551;81;21018;-74
2021/12/31 07:48:27;;;;;;;0.85;0.40;;;;;;;11.93;100.00;100590.00;1739041;81;21594;-74
2021/12/31 07:50:57;;;;;;;2.62;0.40;;;;;;;11.92;100.00;100590.92;1735070;81;21089;-74
2021/12/31 07:53:24;;;;;;;1.12;0.50;;;;;;;11.91;100.00;100590.05;1736485;81;21043;-74
2021/12/31 07:55:51;;;;;;;0.62;0.37;;;;;;;11.92;100.00;100582.58;1735066;81;21112;-73
2021/12/31 07:58:18;;;;;;;2.05;0.35;;;;;;;11.95;100.00;100592.96;1736889;81;21538;-75
2021/12/31 08:00:45;;;;;;;1.30;0.40;;;;;;;11.99;100.00;100592.38;1734888;81;21598;-74
2021/12/31 08:03:15;;;;;;;1.25;0.50;;;;;;;12.04;100.00;100587.80;1730786;81;21018;-74
2021/12/31 08:05:41;;;;;;;1.30;0.50;;;;;;;12.08;100.00;100591.15;1736177;81;21113;-74
2021/12/31 08:08:08;;;;;;;0.65;0.40;;;;;;;12.10;100.00;100587.55;1734781;81;21926;-73
2021/12/31 08:10:37;;;;;;;1.35;0.45;;;;;;;12.13;100.00;100596.61;1734706;81;21713;-74
2021/12/31 08:13:05;;;;;;;1.60;0.45;;;;;;;12.15;100.00;100581.65;1736377;81;21043;-73
2021/12/31 08:15:32;;;;;;;2.10;0.50;;;;;;;12.17;100.00;100590.33;1736185;81;21009;-74
2021/12/31 08:17:59;;;;;;;2.08;0.50;;;;;;;12.19;100.00;100587.20;1734892;81;21035;-74
2021/12/31 08:20:27;;;;;;;1.00;0.50;;;;;;;12.20;100.00;100584.95;1737784;81;21058;-74
2021/12/31 08:22:54;;;;;;;1.02;0.40;;;;;;;12.21;100.00;100580.08;1731513;82;21092;-74
2021/12/31 08:25:21;;;;;;;0.50;0.50;;;;;;;12.22;100.00;100577.86;1731569;81;21068;-74
2021/12/31 08:27:48;;;;;;;2.25;0.50;;;;;;;12.23;100.00;100580.03;1762128;81;21499;-75
2021/12/31 08:30:15;;;;;;;1.35;0.60;;;;;;;12.23;100.00;100583.97;1762580;81;21030;-76
2021/12/31 08:32:42;;;;;;;0.82;0.57;;;;;;;12.24;100.00;100581.27;1762344;81;21127;-73
2021/12/31 08:35:09;;;;;;;0.70;0.40;;;;;;;12.24;100.00;100586.98;1762556;81;20988;-74
2021/12/31 08:37:36;;;;;;;2.52;0.62;;;;;;;12.23;99.89;100580.88;1744697;81;21024;-77
2021/12/31 08:40:04;;;;;;;3.45;0.72;;;;;;;12.23;99.82;100582.19;1741867;82;21638;-75
2021/12/31 08:42:31;;;;;;;2.40;0.62;;;;;;;12.24;99.78;100583.89;1743975;82;21028;-76
2021/12/31 08:44:58;;;;;;;1.50;0.57;;;;;;;12.25;99.55;100588.25;1743327;82;21131;-76
2021/12/31 08:47:25;;;;;;;1.50;0.65;;;;;;;12.25;99.45;100587.40;1731876;82;21047;-75
2021/12/31 08:49:52;;;;;;;1.42;0.60;;;;;;;12.26;99.38;100590.41;1741978;82;21489;-77
2021/12/31 08:52:19;;;;;;;0.90;0.50;;;;;;;12.26;99.24;100588.63;1716490;82;21034;-75
2021/12/31 08:54:46;;;;;;;0.62;0.50;;;;;;;12.26;99.16;100593.89;1731777;82;21035;-75
2021/12/31 08:57:14;;;;;;;1.30;0.60;;;;;;;12.26;99.09;100587.32;1738426;82;21383;-75
2021/12/31 08:59:40;;;;;;;0.95;0.55;;;;;;;12.27;99.04;100586.39;1738141;82;21002;-75
2021/12/31 09:02:09;;;;;;;0.93;0.53;;;;;;;12.28;99.02;100592.53;1738067;82;21043;-73
2021/12/31 09:04:36;;;;;;;1.37;0.42;;;;;;;12.29;98.84;100599.48;1743168;82;21051;-76
2021/12/31 09:07:03;;;;;;;0.95;0.50;;;;;;;12.32;98.90;100594.56;1740105;82;21450;-76
2021/12/31 09:09:30;;;;;;;1.47;0.70;;;;;;;12.35;98.84;100594.43;1742605;82;21809;-75
2021/12/31 09:11:57;;;;;;;2.15;0.57;;;;;;;12.38;98.76;100591.67;1720856;82;21564;-75
2021/12/31 09:14:25;;;;;;;1.27;0.60;;;;;;;12.41;98.70;100588.45;1710908;82;21045;-74
2021/12/31 09:16:52;;;;;;;1.85;0.40;;;;;;;12.46;98.70;100587.80;1735131;82;21058;-75
2021/12/31 09:19:19;;;;;;;1.25;0.57;;;;;;;12.53;98.58;100596.30;1743265;82;21001;-74
2021/12/31 09:21:46;;;;;;;1.05;0.40;;;;;;;12.57;98.46;100586.04;1732245;81;21514;-74
2021/12/31 09:24:13;;;;;;;1.42;0.55;;;;;;;12.63;98.38;100590.19;1735886;82;21043;-74
2021/12/31 09:26:40;;;;;;;1.42;0.50;;;;;;;12.68;98.31;100583.81;1744051;82;21063;-75
2021/12/31 09:29:07;;;;;;;1.40;0.53;;;;;;;12.76;98.23;100591.84;1738013;82;21050;-74
2021/12/31 09:31:34;;;;;;;1.30;0.72;;;;;;;12.81;98.06;100591.19;1737435;82;20981;-75
2021/12/31 09:34:01;;;;;;;2.35;0.50;;;;;;;12.84;97.87;100580.06;1737029;82;21529;-73
2021/12/31 09:36:30;;;;;;;1.35;0.50;;;;;;;12.87;97.67;100583.88;1727591;81;21060;-73
2021/12/31 09:38:57;;;;;;;0.90;0.40;;;;;;;12.91;97.54;100589.41;1731351;81;21016;-72
2021/12/31 09:41:24;;;;;;;1.00;0.50;;;;;;;12.93;97.32;100586.23;1731034;81;21321;-72
2021/12/31 09:43:51;;;;;;;1.42;0.45;;;;;;;12.95;97.26;100580.45;1731834;81;21067;-72
2021/12/31 09:46:19;;;;;;;1.02;0.50;;;;;;;12.97;97.04;100584.34;1727353;81;21135;-75
2021/12/31 09:48:46;;;;;;;1.25;0.60;;;;;;;12.99;96.96;100577.21;1735210;82;21044;-75
2021/12/31 09:51:14;;;;;;;1.00;0.50;;;;;;;13.01;96.86;100569.27;1728424;82;21039;-76
2021/12/31 09:53:42;;;;;;;0.78;0.50;;;;;;;13.04;96.72;100558.13;1700663;84;21110;-76
2021/12/31 09:56:09;;;;;;;1.25;0.55;;;;;;;13.08;96.56;100566.73;1700560;84;21503;-75
2021/12/31 09:58:37;;;;;;;1.92;0.40;;;;;;;13.10;96.48;100568.84;1701630;82;21083;-75
2021/12/31 10:01:08;;;;;;;2.58;0.62;;;;;;;13.14;96.20;100555.95;1730945;82;21066;-74
2021/12/31 10:03:37;;;;;;;1.80;0.50;;;;;;;13.14;96.01;100544.96;1732040;82;21045;-75
2021/12/31 10:06:14;;;;;;;2.25;0.60;;;;;;;13.16;95.95;100548.82;1726484;82;21485;-75
2021/12/31 10:08:44;;;;;;;2.20;0.57;;;;;;;13.17;95.71;100554.03;1731912;82;21416;-75
2021/12/31 10:11:19;;;;;;;1.35;0.50;;;;;;;13.17;95.47;100550.08;1744441;82;21016;-75
2021/12/31 10:14:03;;;;;;;1.35;0.50;;;;;;;13.20;95.24;100546.45;1743090;82;21127;-75
2021/12/31 10:16:40;;;;;;;0.95;0.60;;;;;;;13.21;95.06;100540.26;1702179;84;21047;-75
2021/12/31 10:19:19;;;;;;;0.95;0.40;;;;;;;13.26;95.06;100540.09;1701850;84;20929;-75
2021/12/31 10:21:54;;;;;;;1.92;0.53;;;;;;;13.31;94.96;100540.73;1720304;81;21019;-74
2021/12/31 10:24:37;;;;;;;2.27;0.50;;;;;;;13.35;94.74;100535.71;1731100;82;21032;-74
2021/12/31 10:27:20;;;;;;;1.22;0.60;;;;;;;13.39;94.80;100539.92;1735603;82;21667;-72
2021/12/31 10:30:00;;;;;;;1.05;0.65;;;;;;;13.42;94.46;100536.30;1739491;82;21093;-74
2021/12/31 10:32:40;;;;;;;1.87;0.70;;;;;;;13.46;94.30;100527.31;1743779;82;21489;-76
2021/12/31 10:35:14;;;;;;;1.52;0.60;;;;;;;13.49;94.18;100523.22;1739600;82;21036;-76
2021/12/31 10:37:48;;;;;;;1.27;0.70;;;;;;;13.51;93.88;100522.69;1729888;82;21753;-77
2021/12/31 10:40:40;;;;;;;0.78;0.50;;;;;;;13.53;93.72;100530.91;1728066;82;20970;-75
2021/12/31 10:43:18;;;;;;;1.87;0.53;;;;;;;13.56;93.67;100534.71;1731186;82;21076;-76
2021/12/31 10:46:10;;;;;;;1.47;0.70;;;;;;;13.60;93.37;100532.78;1732362;82;21147;-74
2021/12/31 10:48:48;;;;;;;1.57;0.80;;;;;;;13.61;93.34;100535.83;1730244;82;21028;-76
2021/12/31 10:51:39;;;;;;;2.72;0.90;;;;;;;13.63;93.13;100535.73;1730787;82;21095;-76
2021/12/31 10:54:29;;;;;;;0.40;0.30;;;;;;;13.64;92.96;100544.05;1731769;82;21119;-76
2021/12/31 10:56:49;;;;;;;0.62;0.40;;;;;;;13.65;92.78;100532.57;1726167;82;20992;-75
2021/12/31 10:59:18;;;;;;;1.65;0.53;;;;;;;13.65;92.54;100529.47;1731064;82;21063;-78
2021/12/31 11:01:48;;;;;;;0.98;0.50;;;;;;;13.64;92.38;100522.98;1733467;82;21096;-78
2021/12/31 11:04:18;;;;;;;1.02;0.50;;;;;;;13.64;92.24;100518.55;1731383;82;21156;-76
2021/12/31 11:06:45;;;;;;;1.45;0.55;;;;;;;13.64;92.07;100522.50;1732621;82;26900;-75
2021/12/31 11:09:14;;;;;;;0.90;0.57;;;;;;;13.64;91.82;100530.88;1730984;82;21532;-76
2021/12/31 11:11:47;;;;;;;0.85;0.40;;;;;;;13.63;91.65;100514.20;1730819;82;21536;-76
2021/12/31 11:14:16;;;;;;;2.72;0.40;;;;;;;13.63;91.41;100520.78;1730709;82;21304;-75
2021/12/31 11:16:43;;;;;;;0.77;0.50;;;;;;;13.59;91.34;100513.97;1729952;82;21660;-76
2021/12/31 11:19:12;;;;;;;1.47;0.55;;;;;;;13.59;91.19;100518.77;1731221;82;20997;-77
2021/12/31 11:21:39;;;;;;;1.60;0.50;;;;;;;13.58;91.10;100521.02;1731005;82;21037;-76
2021/12/31 11:24:34;;;;;;;2.67;0.40;;;;;;;13.57;91.02;100515.34;1729857;83;21103;-75
2021/12/31 11:27:27;;;;;;;2.33;1.17;;;;;;;13.56;90.83;100507.53;1735172;81;21023;-76
2021/12/31 11:29:56;;;;;;;1.50;0.50;;;;;;;13.53;90.72;100506.36;1610117;86;21332;-75